KROW/ROW METAR and TAF weather

Enter ICAO airport designator
Station Type Date Time Source
KROW METAR 2019/09/21 04:51 UTC NOAA

KROW 210451Z AUTO 16008KT 10SM CLR 24/17 A2996 RMK AO2 SLP081 T02390167


Station Type Date Time Source
KROW Decoded METAR 2019/09/21 04:51 UTC NOAA

ROSWELL INDUSTRIAL AIR CENTR, NM, United States (KROW) 33-18N 104-32W 1112M
Sep 21, 2019 - 12:51 AM EDT / 2019.09.21 0451 UTC
Wind: from the SSE (160 degrees) at 9 MPH (8 KT):0
Visibility: 10 mile(s):0
Sky conditions: clear
Temperature: 75.0 F (23.9 C)
Dew Point: 62.1 F (16.7 C)
Relative Humidity: 64%
Pressure (altimeter): 29.96 in. Hg (1014 hPa)
ob: KROW 210451Z AUTO 16008KT 10SM CLR 24/17 A2996 RMK AO2 SLP081 T02390167
cycle: 5

Station Type Date Time Source
KROW TAF 2019/09/20 18:22 UTC NOAA

TAF KROW 201720Z 2018/2118 18015KT P6SM BKN120
FM202100 21012KT P6SM SCT100

Example: see airport list